createdAt,value
2023-04-29T00:02:00.154Z,62.93
2023-04-29T00:04:30.359Z,69.37
2023-04-29T00:07:00.298Z,70.00
2023-04-29T00:09:30.004Z,67.60
2023-04-29T00:11:59.824Z,76.93
2023-04-29T00:14:32.128Z,69.20
2023-04-29T00:17:01.946Z,69.03
2023-04-29T00:19:31.720Z,69.70
2023-04-29T00:22:01.540Z,69.40
2023-04-29T00:24:31.331Z,79.93
2023-04-29T00:27:01.815Z,72.27
2023-04-29T00:29:34.169Z,65.77
2023-04-29T00:32:04.133Z,78.07
2023-04-29T00:34:33.898Z,72.67
2023-04-29T00:37:04.221Z,75.00
2023-04-29T00:39:34.418Z,70.60
2023-04-29T00:42:04.288Z,72.83
2023-04-29T00:44:36.611Z,71.07
2023-04-29T00:47:06.432Z,72.13
2023-04-29T00:49:36.188Z,73.37
2023-04-29T00:52:08.266Z,70.07
2023-04-29T00:54:38.169Z,70.37
2023-04-29T00:57:09.050Z,74.50
2023-04-29T00:59:41.640Z,71.10
2023-04-29T01:02:11.777Z,68.73
2023-04-29T01:04:41.509Z,70.03
2023-04-29T01:07:18.439Z,69.23
2023-04-29T01:09:59.866Z,67.93
2023-04-29T01:12:37.180Z,73.80
2023-04-29T01:15:24.012Z,70.40
2023-04-29T01:18:00.285Z,68.73
2023-04-29T01:20:31.255Z,68.90
2023-04-29T01:23:02.063Z,68.97
2023-04-29T01:25:34.844Z,68.93
2023-04-29T01:28:23.903Z,72.40
2023-04-29T01:31:00.354Z,68.10
2023-04-29T01:33:38.182Z,73.97
2023-04-29T01:36:19.817Z,73.50
2023-04-29T01:38:56.642Z,68.67
2023-04-29T01:41:38.402Z,73.13
2023-04-29T01:44:21.744Z,75.43
2023-04-29T01:46:54.817Z,73.00
2023-04-29T01:49:29.687Z,72.87
2023-04-29T01:51:59.437Z,66.37
2023-04-29T01:54:29.175Z,70.27
2023-04-29T01:57:02.922Z,73.70
2023-04-29T01:59:58.626Z,69.43
2023-04-29T02:02:42.981Z,64.73
2023-04-29T02:05:26.573Z,61.43
2023-04-29T02:07:59.668Z,57.20
2023-04-29T02:10:29.550Z,52.97
2023-04-29T02:13:13.859Z,53.93
2023-04-29T02:15:44.706Z,55.37
2023-04-29T02:18:14.806Z,52.77
2023-04-29T02:20:44.781Z,52.33
2023-04-29T02:23:14.763Z,49.57
2023-04-29T02:25:44.485Z,49.97
2023-04-29T02:28:17.998Z,57.90
2023-04-29T02:30:47.790Z,60.40
2023-04-29T02:33:18.531Z,59.30
2023-04-29T02:35:48.555Z,60.00
2023-04-29T02:38:19.536Z,61.03
2023-04-29T02:40:50.615Z,56.97
2023-04-29T02:43:23.308Z,64.90
2023-04-29T02:45:53.122Z,68.90
2023-04-29T02:48:23.090Z,64.97
2023-04-29T02:50:53.006Z,65.77
2023-04-29T02:53:23.514Z,67.10
2023-04-29T02:55:53.309Z,70.50
2023-04-29T02:58:25.703Z,72.27
2023-04-29T03:00:55.657Z,73.97
2023-04-29T03:03:25.999Z,73.20
2023-04-29T03:05:55.844Z,81.47
2023-04-29T03:08:25.629Z,77.00
2023-04-29T03:10:55.367Z,82.07
2023-04-29T03:13:28.411Z,84.30
2023-04-29T03:15:58.846Z,90.63
2023-04-29T03:18:28.926Z,92.77
2023-04-29T03:20:58.791Z,98.47
2023-04-29T03:23:28.652Z,104.87
2023-04-29T03:25:58.933Z,106.80
2023-04-29T03:28:31.583Z,100.67
2023-04-29T03:31:02.110Z,111.23
2023-04-29T03:33:32.004Z,115.30
2023-04-29T03:36:01.939Z,125.43
2023-04-29T03:38:38.299Z,111.07
2023-04-29T03:41:08.459Z,112.57
2023-04-29T03:43:41.096Z,109.37
2023-04-29T03:46:10.921Z,89.17
2023-04-29T03:48:41.216Z,89.93
2023-04-29T03:51:14.321Z,94.70
2023-04-29T03:53:44.662Z,88.07
2023-04-29T03:56:15.483Z,93.53
2023-04-29T03:58:49.279Z,88.83
2023-04-29T04:01:19.574Z,100.70
2023-04-29T04:03:49.828Z,102.00
2023-04-29T04:06:19.818Z,110.63
2023-04-29T04:08:50.150Z,115.90
2023-04-29T04:11:23.740Z,144.03
2023-04-29T04:14:02.024Z,147.47
2023-04-29T04:16:32.835Z,165.90
2023-04-29T04:19:03.024Z,157.80
2023-04-29T04:21:34.823Z,154.80
2023-04-29T04:24:10.040Z,165.70
2023-04-29T04:26:41.649Z,156.10
2023-04-29T04:29:14.365Z,163.10
2023-04-29T04:32:13.128Z,153.30
2023-04-29T04:34:43.060Z,160.17
2023-04-29T04:37:13.324Z,171.73
2023-04-29T04:39:45.096Z,158.13
2023-04-29T04:42:17.141Z,157.70
2023-04-29T04:44:51.792Z,168.90
2023-04-29T04:47:34.641Z,170.70
2023-04-29T04:50:10.651Z,154.87
2023-04-29T04:52:41.280Z,152.80
2023-04-29T04:55:29.687Z,160.17
2023-04-29T04:57:59.746Z,162.70
2023-04-29T05:00:32.683Z,183.73
2023-04-29T05:03:02.759Z,166.90
2023-04-29T05:05:32.582Z,153.53
2023-04-29T05:08:02.414Z,150.07
2023-04-29T05:10:44.605Z,154.47
2023-04-29T05:13:15.341Z,143.13
2023-04-29T05:15:48.491Z,149.63
2023-04-29T05:18:23.443Z,145.60
2023-04-29T05:20:54.680Z,160.10
2023-04-29T05:23:24.568Z,143.30
2023-04-29T05:25:55.011Z,144.57
2023-04-29T05:28:26.042Z,140.73
2023-04-29T05:31:01.453Z,139.27
2023-04-29T05:33:31.249Z,138.60
2023-04-29T05:36:01.136Z,131.47
2023-04-29T05:38:31.434Z,129.97
2023-04-29T05:41:06.537Z,121.80
2023-04-29T05:43:46.506Z,124.47
2023-04-29T05:46:20.758Z,120.33
2023-04-29T05:48:52.165Z,109.80
2023-04-29T05:51:22.146Z,95.83
2023-04-29T05:53:52.330Z,99.90
2023-04-29T05:56:22.606Z,96.80
2023-04-29T05:58:52.493Z,94.10
2023-04-29T06:01:24.815Z,96.00
2023-04-29T06:03:54.865Z,103.73
2023-04-29T06:06:41.389Z,86.63
2023-04-29T06:09:27.448Z,90.47
2023-04-29T06:11:59.796Z,85.47
2023-04-29T06:14:29.602Z,86.80
2023-04-29T06:17:02.256Z,80.97
2023-04-29T06:19:33.745Z,74.80
2023-04-29T06:22:03.565Z,78.63
2023-04-29T06:24:34.353Z,70.03
2023-04-29T06:27:04.829Z,74.27
2023-04-29T06:29:34.770Z,65.33
2023-04-29T06:32:08.035Z,76.20
2023-04-29T06:34:39.635Z,67.60
2023-04-29T06:37:29.157Z,71.20
2023-04-29T06:40:28.278Z,63.13
2023-04-29T06:43:08.297Z,64.80
2023-04-29T06:45:58.369Z,65.80
2023-04-29T06:48:38.179Z,59.23
2023-04-29T06:51:08.488Z,57.87
2023-04-29T06:53:40.155Z,58.60
2023-04-29T06:56:10.872Z,60.47
2023-04-29T06:58:40.601Z,57.67
2023-04-29T07:01:11.163Z,65.33
2023-04-29T07:03:44.032Z,63.37
2023-04-29T07:06:15.000Z,62.17
2023-04-29T07:08:44.880Z,60.73
2023-04-29T07:11:15.066Z,57.70
2023-04-29T07:13:44.864Z,51.03
2023-04-29T07:16:20.660Z,54.43
2023-04-29T07:18:53.126Z,59.90
2023-04-29T07:21:22.884Z,61.30
2023-04-29T07:23:52.742Z,57.53
2023-04-29T07:26:22.518Z,55.50
2023-04-29T07:28:52.306Z,58.33
2023-04-29T07:31:22.733Z,53.40
2023-04-29T07:33:55.327Z,54.27
2023-04-29T07:36:25.244Z,49.00
2023-04-29T07:38:55.257Z,49.93
2023-04-29T07:41:25.041Z,43.70
2023-04-29T07:43:54.783Z,43.17
2023-04-29T07:46:24.624Z,44.60
2023-04-29T07:48:58.528Z,50.80
2023-04-29T07:51:29.306Z,46.57
2023-04-29T07:53:59.059Z,43.60
2023-04-29T07:56:28.816Z,47.40
2023-04-29T07:58:58.590Z,40.33
2023-04-29T08:01:28.485Z,37.57
2023-04-29T08:04:01.218Z,39.77
2023-04-29T08:06:31.393Z,38.13
2023-04-29T08:09:02.709Z,36.80
2023-04-29T08:11:33.095Z,36.70
2023-04-29T08:14:02.922Z,36.57
2023-04-29T08:16:32.730Z,35.63
2023-04-29T08:19:05.238Z,33.27
2023-04-29T08:21:35.441Z,34.73
2023-04-29T08:24:05.888Z,34.23
2023-04-29T08:26:35.672Z,35.30
2023-04-29T08:29:05.649Z,33.50
2023-04-29T08:31:35.705Z,30.50
2023-04-29T08:34:08.067Z,35.13
2023-04-29T08:36:38.845Z,37.20
2023-04-29T08:39:09.066Z,33.70
2023-04-29T08:41:40.000Z,40.43
2023-04-29T08:44:09.814Z,37.07
2023-04-29T08:46:40.197Z,40.70
2023-04-29T08:49:13.141Z,38.47
2023-04-29T08:51:42.953Z,32.93
2023-04-29T08:54:14.071Z,32.83
2023-04-29T08:56:48.742Z,40.13
2023-04-29T08:59:20.258Z,35.73
2023-04-29T09:01:54.104Z,30.57
2023-04-29T09:04:40.982Z,32.33
2023-04-29T09:07:11.377Z,36.50
2023-04-29T09:09:42.769Z,36.40
2023-04-29T09:12:12.543Z,33.87
2023-04-29T09:14:42.318Z,32.33
2023-04-29T09:17:12.133Z,31.00
2023-04-29T09:19:44.627Z,30.23
2023-04-29T09:22:14.421Z,33.67
2023-04-29T09:24:45.766Z,27.03
2023-04-29T09:27:29.891Z,27.47
2023-04-29T09:30:03.866Z,26.83
2023-04-29T09:32:33.844Z,32.60
2023-04-29T09:35:25.100Z,31.70
2023-04-29T09:37:56.664Z,30.80
2023-04-29T09:40:40.433Z,31.80
2023-04-29T09:43:18.493Z,36.27
2023-04-29T09:45:50.092Z,30.33
2023-04-29T09:48:20.515Z,30.87
2023-04-29T09:51:04.801Z,32.17
2023-04-29T09:53:38.199Z,33.40
2023-04-29T09:56:09.514Z,32.70
2023-04-29T09:58:40.569Z,34.47
2023-04-29T10:01:13.580Z,25.23
2023-04-29T10:03:45.261Z,24.60
2023-04-29T10:06:20.034Z,28.97
2023-04-29T10:08:51.030Z,23.50
2023-04-29T10:11:21.034Z,22.13
2023-04-29T10:13:53.134Z,28.03
2023-04-29T10:16:31.907Z,23.90
2023-04-29T10:19:07.088Z,19.07
2023-04-29T10:21:39.739Z,28.93
2023-04-29T10:24:10.747Z,19.67
2023-04-29T10:26:42.524Z,17.83
2023-04-29T10:29:14.142Z,16.20
2023-04-29T10:31:46.243Z,18.23
2023-04-29T10:34:16.724Z,24.93
2023-04-29T10:36:50.032Z,19.20
2023-04-29T10:39:30.800Z,17.03
2023-04-29T10:42:01.204Z,15.53
2023-04-29T10:44:30.950Z,16.10
2023-04-29T10:47:22.319Z,19.03
2023-04-29T10:50:07.605Z,15.50
2023-04-29T10:52:58.107Z,23.93
2023-04-29T10:55:28.106Z,15.70
2023-04-29T10:57:58.738Z,17.57
2023-04-29T11:00:30.795Z,14.23
2023-04-29T11:03:02.527Z,18.17
2023-04-29T11:05:37.185Z,18.23
2023-04-29T11:08:23.190Z,17.27
2023-04-29T11:10:55.784Z,18.23
2023-04-29T11:13:28.160Z,22.53
2023-04-29T11:16:07.371Z,19.80
2023-04-29T11:18:38.170Z,15.17
2023-04-29T11:21:17.807Z,18.80
2023-04-29T11:23:51.057Z,20.23
2023-04-29T11:26:22.473Z,17.37
2023-04-29T11:28:54.755Z,18.87
2023-04-29T11:31:25.391Z,17.60
2023-04-29T11:33:56.630Z,16.40
2023-04-29T11:36:27.462Z,15.73
2023-04-29T11:38:59.824Z,14.83
2023-04-29T11:41:29.735Z,15.23
2023-04-29T11:44:00.395Z,18.73
2023-04-29T11:46:34.082Z,19.87
2023-04-29T11:49:04.829Z,12.90
2023-04-29T11:51:34.645Z,13.80
2023-04-29T11:54:08.304Z,16.30
2023-04-29T11:56:40.965Z,14.67
2023-04-29T11:59:10.901Z,16.03
2023-04-29T12:01:40.895Z,20.93
2023-04-29T12:04:10.839Z,13.20
2023-04-29T12:06:41.859Z,21.30
2023-04-29T12:09:15.985Z,16.23
2023-04-29T12:11:47.186Z,14.63
2023-04-29T12:14:17.390Z,15.13
2023-04-29T12:16:47.337Z,14.10
2023-04-29T12:19:17.355Z,14.57
2023-04-29T12:21:53.607Z,15.93
2023-04-29T12:24:27.377Z,10.47
2023-04-29T12:26:59.912Z,10.87
2023-04-29T12:29:29.804Z,12.80
2023-04-29T12:31:59.873Z,13.53
2023-04-29T12:34:31.596Z,14.33
2023-04-29T12:37:02.981Z,11.17
2023-04-29T12:39:35.825Z,19.93
2023-04-29T12:42:06.006Z,11.70
2023-04-29T12:44:38.907Z,12.00
2023-04-29T12:47:13.775Z,12.37
2023-04-29T12:49:45.471Z,10.03
2023-04-29T12:52:15.323Z,12.70
2023-04-29T12:54:47.967Z,9.33
2023-04-29T12:57:17.704Z,12.77
2023-04-29T12:59:47.435Z,19.60
2023-04-29T13:02:17.675Z,13.00
2023-04-29T13:04:47.737Z,11.83
2023-04-29T13:07:18.384Z,16.77
2023-04-29T13:09:51.165Z,8.13
2023-04-29T13:12:20.876Z,10.83
2023-04-29T13:14:51.465Z,10.80
2023-04-29T13:17:21.406Z,15.87
2023-04-29T13:19:52.268Z,10.93
2023-04-29T13:22:22.659Z,8.07
2023-04-29T13:24:55.277Z,8.70
2023-04-29T13:27:25.276Z,8.93
2023-04-29T13:29:55.406Z,11.80
2023-04-29T13:32:25.931Z,12.70
2023-04-29T13:34:56.521Z,9.93
2023-04-29T13:37:26.583Z,10.63
2023-04-29T13:39:58.898Z,12.20
2023-04-29T13:42:28.661Z,8.80
2023-04-29T13:44:58.470Z,8.67
2023-04-29T13:47:30.429Z,8.90
2023-04-29T14:05:28.590Z,9.47
2023-04-29T14:07:58.476Z,6.17
2023-04-29T14:10:31.338Z,7.87
2023-04-29T14:13:01.314Z,9.80
2023-04-29T14:15:31.199Z,7.20
2023-04-29T14:18:01.127Z,10.53
2023-04-29T14:20:30.975Z,10.03
2023-04-29T14:23:01.054Z,9.33
2023-04-29T14:25:34.075Z,6.13
2023-04-29T14:28:04.186Z,17.00
2023-04-29T14:30:33.953Z,14.67
2023-04-29T14:33:04.217Z,10.90
2023-04-29T14:35:34.215Z,7.00
2023-04-29T14:38:03.929Z,7.50
2023-04-29T14:40:36.656Z,7.03
2023-04-29T14:43:06.776Z,11.10
2023-04-29T14:45:37.802Z,11.23
2023-04-29T14:48:08.226Z,8.13
2023-04-29T14:50:38.089Z,7.60
2023-04-29T14:53:08.947Z,9.17
2023-04-29T14:55:41.307Z,10.37
2023-04-29T14:58:11.041Z,8.17
2023-04-29T15:00:40.800Z,7.73
2023-04-29T15:03:10.956Z,7.63
2023-04-29T15:05:41.166Z,5.97
2023-04-29T15:08:11.446Z,10.17
2023-04-29T15:10:44.186Z,12.17
2023-04-29T15:13:13.982Z,10.77
2023-04-29T15:15:43.773Z,7.70
2023-04-29T15:18:13.732Z,11.13
2023-04-29T15:20:43.597Z,5.30
2023-04-29T15:23:13.386Z,11.47
2023-04-29T15:25:45.891Z,7.10
2023-04-29T15:28:15.806Z,3.47
2023-04-29T15:30:45.551Z,6.73
2023-04-29T15:33:15.334Z,6.23
2023-04-29T15:35:45.183Z,11.97
2023-04-29T15:38:14.989Z,6.87
2023-04-29T15:40:47.360Z,8.87
2023-04-29T15:43:17.185Z,6.00
2023-04-29T15:45:46.940Z,7.53
2023-04-29T15:48:16.865Z,8.17
2023-04-29T15:50:46.864Z,4.93
2023-04-29T15:53:16.613Z,6.90
2023-04-29T15:55:48.915Z,7.80
2023-04-29T15:58:18.767Z,6.20
2023-04-29T16:00:48.548Z,6.13
2023-04-29T16:03:18.466Z,6.60
2023-04-29T16:05:48.243Z,5.47
2023-04-29T16:08:18.003Z,7.47
2023-04-29T16:10:50.376Z,4.80
2023-04-29T16:13:20.180Z,6.33
2023-04-29T16:15:50.045Z,7.60
2023-04-29T16:18:20.548Z,3.80
2023-04-29T16:20:50.284Z,5.03
2023-04-29T16:23:20.042Z,6.53
2023-04-29T16:25:52.865Z,8.33
2023-04-29T16:28:22.645Z,6.70
2023-04-29T16:30:52.413Z,15.10
2023-04-29T16:33:22.281Z,4.37
2023-04-29T16:35:52.223Z,8.43
2023-04-29T16:38:21.970Z,10.53
2023-04-29T16:40:54.526Z,16.17
2023-04-29T16:43:24.487Z,6.67
2023-04-29T16:45:54.335Z,7.57
2023-04-29T16:48:24.171Z,11.63
2023-04-29T16:50:53.970Z,8.00
2023-04-29T16:53:23.915Z,8.23
2023-04-29T16:55:56.462Z,7.40
2023-04-29T16:58:26.231Z,10.70
2023-04-29T17:00:56.305Z,8.73
2023-04-29T17:03:26.107Z,16.80
2023-04-29T17:05:56.276Z,4.30
2023-04-29T17:08:27.379Z,5.63
2023-04-29T17:10:59.771Z,8.60
2023-04-29T17:13:29.892Z,6.20
2023-04-29T17:15:59.651Z,5.23
2023-04-29T17:18:29.661Z,4.90
2023-04-29T17:20:59.459Z,6.00
2023-04-29T17:23:30.810Z,11.37
2023-04-29T17:26:03.418Z,5.43
2023-04-29T17:28:33.476Z,4.40
2023-04-29T17:31:03.640Z,4.93
2023-04-29T17:33:37.117Z,6.27
2023-04-29T17:36:07.983Z,4.30
2023-04-29T17:38:37.760Z,4.03
2023-04-29T17:41:10.060Z,3.53
2023-04-29T17:43:39.903Z,4.90
2023-04-29T17:46:09.750Z,4.77
2023-04-29T17:48:39.603Z,5.07
2023-04-29T17:51:09.394Z,6.97
2023-04-29T17:53:39.139Z,7.27
2023-04-29T17:56:11.504Z,3.23
2023-04-29T17:58:41.224Z,6.30
2023-04-29T18:01:11.079Z,6.33
2023-04-29T18:03:42.139Z,9.80
2023-04-29T18:06:11.984Z,5.70
2023-04-29T18:08:42.150Z,10.23
2023-04-29T18:11:15.190Z,9.70
2023-04-29T18:13:45.395Z,7.00
2023-04-29T18:16:15.299Z,6.80
2023-04-29T18:18:45.085Z,7.17
2023-04-29T18:21:15.308Z,5.30
2023-04-29T18:23:45.041Z,4.53
2023-04-29T18:26:17.452Z,9.30
2023-04-29T18:28:47.521Z,9.63
2023-04-29T18:31:18.109Z,7.05
2023-04-29T18:33:48.056Z,10.70
2023-04-29T18:36:17.835Z,6.67
2023-04-29T18:38:47.632Z,8.73
2023-04-29T18:41:20.049Z,6.77
2023-04-29T18:43:49.777Z,11.70
2023-04-29T18:46:19.600Z,7.10
2023-04-29T18:48:49.363Z,5.20
2023-04-29T18:51:19.366Z,6.87
2023-04-29T18:53:49.155Z,13.67
2023-04-29T18:56:21.595Z,7.13
2023-04-29T18:58:51.532Z,5.77
2023-04-29T19:01:21.299Z,6.30
2023-04-29T19:03:51.678Z,6.50
2023-04-29T19:06:21.443Z,7.93
2023-04-29T19:08:51.263Z,4.90
2023-04-29T19:11:23.665Z,7.90
2023-04-29T19:13:53.458Z,7.50
2023-04-29T19:16:23.705Z,6.40
2023-04-29T19:18:53.686Z,6.70
2023-04-29T19:21:23.743Z,10.50
2023-04-29T19:23:53.943Z,7.27
2023-04-29T19:26:26.329Z,10.20
2023-04-29T19:28:56.073Z,6.57
2023-04-29T19:31:25.857Z,7.37
2023-04-29T19:33:55.689Z,14.83
2023-04-29T19:36:25.488Z,10.23
2023-04-29T19:38:55.323Z,7.27
2023-04-29T19:41:27.698Z,5.70
2023-04-29T19:43:57.476Z,5.70
2023-04-29T19:46:27.292Z,7.23
2023-04-29T19:48:57.461Z,6.63
2023-04-29T19:51:27.215Z,6.87
2023-04-29T19:54:01.653Z,9.73
2023-04-29T19:56:34.056Z,3.70
2023-04-29T19:59:03.803Z,8.57
2023-04-29T20:01:33.876Z,6.60
2023-04-29T20:04:03.738Z,4.57
2023-04-29T20:06:37.681Z,8.50
2023-04-29T20:09:09.511Z,8.23
2023-04-29T20:11:41.818Z,6.83
2023-04-29T20:14:11.745Z,10.70
2023-04-29T20:16:41.683Z,6.90
2023-04-29T20:19:12.010Z,7.27
2023-04-29T20:21:42.261Z,5.53
2023-04-29T20:24:11.978Z,8.50
2023-04-29T20:26:44.321Z,6.90
2023-04-29T20:29:14.079Z,6.80
2023-04-29T20:31:44.075Z,8.23
2023-04-29T20:34:13.965Z,10.57
2023-04-29T20:36:43.718Z,6.20
2023-04-29T20:39:13.551Z,7.33
2023-04-29T20:41:45.867Z,10.33
2023-04-29T20:44:15.617Z,6.30
2023-04-29T20:46:46.228Z,7.03
2023-04-29T20:49:16.001Z,6.83
2023-04-29T20:51:45.842Z,6.10
2023-04-29T20:54:15.566Z,7.20
2023-04-29T20:56:47.886Z,5.53
2023-04-29T20:59:17.645Z,19.43
2023-04-29T21:01:47.628Z,13.13
2023-04-29T21:04:18.197Z,13.70
2023-04-29T21:06:47.950Z,11.07
2023-04-29T21:09:18.001Z,13.80
2023-04-29T21:11:50.621Z,8.73
2023-04-29T21:14:20.410Z,7.83
2023-04-29T21:16:50.179Z,11.83
2023-04-29T21:19:20.006Z,11.10
2023-04-29T21:21:49.733Z,8.43
2023-04-29T21:24:19.469Z,10.13
2023-04-29T21:26:51.776Z,7.80
2023-04-29T21:29:21.560Z,8.00
2023-04-29T21:31:51.433Z,11.67
2023-04-29T21:34:21.373Z,8.67
2023-04-29T21:36:51.112Z,7.73
2023-04-29T21:39:20.907Z,9.70
2023-04-29T21:41:53.658Z,11.13
2023-04-29T21:44:23.467Z,12.10
2023-04-29T21:46:53.289Z,9.70
2023-04-29T21:49:23.237Z,9.87
2023-04-29T21:51:53.141Z,8.70
2023-04-29T21:54:23.079Z,9.27
2023-04-29T21:56:56.295Z,9.70
2023-04-29T21:59:26.238Z,8.03
2023-04-29T22:02:00.605Z,7.10
2023-04-29T22:04:30.955Z,8.97
2023-04-29T22:07:01.217Z,7.60
2023-04-29T22:09:31.095Z,8.87
2023-04-29T22:12:03.777Z,7.20
2023-04-29T22:14:33.692Z,14.53
2023-04-29T22:17:03.650Z,8.93
2023-04-29T22:19:33.515Z,7.47
2023-04-29T22:22:04.317Z,8.03
2023-04-29T22:24:34.253Z,10.43
2023-04-29T22:27:07.062Z,7.40
2023-04-29T22:29:36.773Z,8.87
2023-04-29T22:32:07.342Z,12.43
2023-04-29T22:34:37.111Z,11.23
2023-04-29T22:37:07.035Z,8.77
2023-04-29T22:39:36.927Z,13.10
2023-04-29T22:42:09.675Z,13.40
2023-04-29T22:44:39.571Z,8.00
2023-04-29T22:47:09.430Z,13.13
2023-04-29T22:49:39.150Z,11.60
2023-04-29T22:52:08.965Z,18.43
2023-04-29T22:54:38.736Z,9.73
2023-04-29T22:57:11.227Z,16.13
2023-04-29T22:59:41.021Z,16.23
2023-04-29T23:02:10.887Z,15.03
2023-04-29T23:04:40.657Z,9.73
2023-04-29T23:07:10.451Z,8.87
2023-04-29T23:09:40.185Z,10.73
2023-04-29T23:12:12.537Z,14.17
2023-04-29T23:14:42.270Z,9.30
2023-04-29T23:17:12.035Z,16.93
2023-04-29T23:19:42.565Z,11.60
2023-04-29T23:22:12.899Z,16.93
2023-04-29T23:24:42.613Z,11.80
2023-04-29T23:27:14.924Z,12.67
2023-04-29T23:29:44.627Z,15.67
2023-04-29T23:32:14.353Z,12.27
2023-04-29T23:34:44.101Z,8.93
2023-04-29T23:37:13.858Z,8.00
2023-04-29T23:39:43.615Z,12.00
2023-04-29T23:42:15.935Z,12.50
2023-04-29T23:44:45.704Z,17.57
2023-04-29T23:47:15.408Z,11.40
2023-04-29T23:49:45.568Z,11.90
2023-04-29T23:52:15.305Z,9.87
2023-04-29T23:54:45.070Z,9.20
2023-04-29T23:57:18.036Z,13.13
2023-04-29T23:59:47.974Z,10.53
